sensor_id;sensor_type;location;lat;lon;timestamp;P1;durP1;ratioP1;P2;durP2;ratioP2
61200;SDS011;47065;52.898;6.992;2022-10-16T00:01:14;6.75;;;1.83;;
61200;SDS011;47065;52.898;6.992;2022-10-16T00:03:42;3.20;;;1.85;;
61200;SDS011;47065;52.898;6.992;2022-10-16T00:06:09;8.90;;;2.22;;
61200;SDS011;47065;52.898;6.992;2022-10-16T00:08:36;6.35;;;1.80;;
61200;SDS011;47065;52.898;6.992;2022-10-16T00:11:05;6.07;;;1.75;;
61200;SDS011;47065;52.898;6.992;2022-10-16T00:13:46;6.15;;;2.22;;
61200;SDS011;47065;52.898;6.992;2022-10-16T00:16:13;13.57;;;3.80;;
61200;SDS011;47065;52.898;6.992;2022-10-16T00:18:39;6.63;;;1.42;;
61200;SDS011;47065;52.898;6.992;2022-10-16T00:21:09;5.68;;;1.40;;
61200;SDS011;47065;52.898;6.992;2022-10-16T00:23:37;8.65;;;1.80;;
61200;SDS011;47065;52.898;6.992;2022-10-16T00:26:04;8.27;;;2.75;;
61200;SDS011;47065;52.898;6.992;2022-10-16T00:28:32;7.65;;;1.83;;
61200;SDS011;47065;52.898;6.992;2022-10-16T00:30:58;9.32;;;1.88;;
61200;SDS011;47065;52.898;6.992;2022-10-16T00:33:27;7.15;;;2.00;;
61200;SDS011;47065;52.898;6.992;2022-10-16T00:35:52;6.95;;;1.63;;
61200;SDS011;47065;52.898;6.992;2022-10-16T00:38:18;4.93;;;1.83;;
61200;SDS011;47065;52.898;6.992;2022-10-16T00:40:44;6.05;;;1.85;;
61200;SDS011;47065;52.898;6.992;2022-10-16T00:43:13;4.72;;;1.65;;
61200;SDS011;47065;52.898;6.992;2022-10-16T00:45:58;3.03;;;1.35;;
61200;SDS011;47065;52.898;6.992;2022-10-16T00:48:24;4.85;;;1.60;;
61200;SDS011;47065;52.898;6.992;2022-10-16T00:50:50;7.82;;;1.70;;
61200;SDS011;47065;52.898;6.992;2022-10-16T00:53:16;4.10;;;1.73;;
61200;SDS011;47065;52.898;6.992;2022-10-16T00:55:42;4.72;;;1.80;;
61200;SDS011;47065;52.898;6.992;2022-10-16T00:58:08;5.05;;;2.00;;
61200;SDS011;47065;52.898;6.992;2022-10-16T01:00:34;6.60;;;1.90;;
61200;SDS011;47065;52.898;6.992;2022-10-16T01:03:00;6.80;;;1.90;;
61200;SDS011;47065;52.898;6.992;2022-10-16T01:05:33;2.45;;;1.65;;
61200;SDS011;47065;52.898;6.992;2022-10-16T01:10:52;5.78;;;2.13;;
61200;SDS011;47065;52.898;6.992;2022-10-16T01:13:25;2.40;;;1.92;;
61200;SDS011;47065;52.898;6.992;2022-10-16T01:20:57;3.63;;;2.10;;
61200;SDS011;47065;52.898;6.992;2022-10-16T01:23:29;2.90;;;1.63;;
61200;SDS011;47065;52.898;6.992;2022-10-16T01:28:49;2.42;;;2.10;;
61200;SDS011;47065;52.898;6.992;2022-10-16T01:31:18;2.80;;;1.52;;
61200;SDS011;47065;52.898;6.992;2022-10-16T01:33:47;6.05;;;1.95;;
61200;SDS011;47065;52.898;6.992;2022-10-16T01:36:28;3.67;;;2.22;;
61200;SDS011;47065;52.898;6.992;2022-10-16T01:39:01;6.30;;;2.25;;
61200;SDS011;47065;52.898;6.992;2022-10-16T01:41:30;6.10;;;2.00;;
61200;SDS011;47065;52.898;6.992;2022-10-16T01:44:05;6.80;;;2.42;;
61200;SDS011;47065;52.898;6.992;2022-10-16T01:46:44;8.25;;;2.47;;
61200;SDS011;47065;52.898;6.992;2022-10-16T01:49:13;4.75;;;2.40;;
61200;SDS011;47065;52.898;6.992;2022-10-16T01:51:39;4.95;;;2.55;;
61200;SDS011;47065;52.898;6.992;2022-10-16T01:54:07;7.55;;;2.00;;
61200;SDS011;47065;52.898;6.992;2022-10-16T01:56:34;5.43;;;2.25;;
61200;SDS011;47065;52.898;6.992;2022-10-16T01:59:03;10.57;;;3.28;;
61200;SDS011;47065;52.898;6.992;2022-10-16T02:01:33;2.05;;;1.80;;
61200;SDS011;47065;52.898;6.992;2022-10-16T02:04:04;7.35;;;2.63;;
61200;SDS011;47065;52.898;6.992;2022-10-16T02:06:34;3.58;;;2.10;;
61200;SDS011;47065;52.898;6.992;2022-10-16T02:09:00;8.48;;;2.28;;
61200;SDS011;47065;52.898;6.992;2022-10-16T02:11:26;3.78;;;1.80;;
61200;SDS011;47065;52.898;6.992;2022-10-16T02:13:58;3.63;;;1.98;;
61200;SDS011;47065;52.898;6.992;2022-10-16T02:16:33;3.15;;;1.70;;
61200;SDS011;47065;52.898;6.992;2022-10-16T02:19:00;4.55;;;2.17;;
61200;SDS011;47065;52.898;6.992;2022-10-16T02:21:26;3.35;;;1.85;;
61200;SDS011;47065;52.898;6.992;2022-10-16T02:29:42;7.70;;;3.03;;
61200;SDS011;47065;52.898;6.992;2022-10-16T02:32:15;3.92;;;1.77;;
61200;SDS011;47065;52.898;6.992;2022-10-16T02:34:45;2.70;;;1.58;;
61200;SDS011;47065;52.898;6.992;2022-10-16T02:37:13;4.85;;;1.90;;
61200;SDS011;47065;52.898;6.992;2022-10-16T02:39:39;4.78;;;1.83;;
61200;SDS011;47065;52.898;6.992;2022-10-16T02:42:09;7.97;;;1.90;;
61200;SDS011;47065;52.898;6.992;2022-10-16T02:44:37;3.65;;;1.40;;
61200;SDS011;47065;52.898;6.992;2022-10-16T02:47:02;4.38;;;1.38;;
61200;SDS011;47065;52.898;6.992;2022-10-16T02:49:28;3.60;;;1.83;;
61200;SDS011;47065;52.898;6.992;2022-10-16T02:51:54;4.50;;;1.48;;
61200;SDS011;47065;52.898;6.992;2022-10-16T02:54:19;4.70;;;2.30;;
61200;SDS011;47065;52.898;6.992;2022-10-16T02:56:45;1.77;;;1.63;;
61200;SDS011;47065;52.898;6.992;2022-10-16T02:59:11;6.10;;;2.00;;
61200;SDS011;47065;52.898;6.992;2022-10-16T03:01:36;2.88;;;1.80;;
61200;SDS011;47065;52.898;6.992;2022-10-16T03:04:02;4.45;;;2.70;;
61200;SDS011;47065;52.898;6.992;2022-10-16T03:06:28;3.42;;;1.42;;
61200;SDS011;47065;52.898;6.992;2022-10-16T03:08:53;10.50;;;2.13;;
61200;SDS011;47065;52.898;6.992;2022-10-16T03:11:19;4.28;;;1.85;;
61200;SDS011;47065;52.898;6.992;2022-10-16T03:13:44;2.28;;;1.50;;
61200;SDS011;47065;52.898;6.992;2022-10-16T03:16:10;1.95;;;1.55;;
61200;SDS011;47065;52.898;6.992;2022-10-16T03:18:36;1.85;;;1.52;;
61200;SDS011;47065;52.898;6.992;2022-10-16T03:21:02;4.45;;;1.90;;
61200;SDS011;47065;52.898;6.992;2022-10-16T03:23:27;3.47;;;1.60;;
61200;SDS011;47065;52.898;6.992;2022-10-16T03:25:53;2.97;;;1.75;;
61200;SDS011;47065;52.898;6.992;2022-10-16T03:28:19;3.55;;;1.50;;
61200;SDS011;47065;52.898;6.992;2022-10-16T03:30:45;3.30;;;2.15;;
61200;SDS011;47065;52.898;6.992;2022-10-16T03:33:10;4.47;;;1.70;;
61200;SDS011;47065;52.898;6.992;2022-10-16T03:35:36;4.97;;;1.60;;
61200;SDS011;47065;52.898;6.992;2022-10-16T03:38:01;2.90;;;1.75;;
61200;SDS011;47065;52.898;6.992;2022-10-16T03:40:27;3.50;;;1.73;;
61200;SDS011;47065;52.898;6.992;2022-10-16T03:42:53;2.20;;;2.00;;
61200;SDS011;47065;52.898;6.992;2022-10-16T03:45:22;2.05;;;1.33;;
61200;SDS011;47065;52.898;6.992;2022-10-16T03:47:48;5.47;;;1.85;;
61200;SDS011;47065;52.898;6.992;2022-10-16T03:50:14;2.25;;;1.83;;
61200;SDS011;47065;52.898;6.992;2022-10-16T03:52:39;3.78;;;1.80;;
61200;SDS011;47065;52.898;6.992;2022-10-16T03:55:05;4.55;;;2.03;;
61200;SDS011;47065;52.898;6.992;2022-10-16T03:57:31;2.63;;;2.20;;
61200;SDS011;47065;52.898;6.992;2022-10-16T03:59:57;8.27;;;2.78;;
61200;SDS011;47065;52.898;6.992;2022-10-16T04:02:23;4.35;;;2.10;;
61200;SDS011;47065;52.898;6.992;2022-10-16T04:04:48;3.17;;;2.05;;
61200;SDS011;47065;52.898;6.992;2022-10-16T04:07:14;3.38;;;1.98;;
61200;SDS011;47065;52.898;6.992;2022-10-16T04:09:40;2.67;;;2.15;;
61200;SDS011;47065;52.898;6.992;2022-10-16T04:12:06;4.40;;;1.85;;
61200;SDS011;47065;52.898;6.992;2022-10-16T04:14:32;3.38;;;1.83;;
61200;SDS011;47065;52.898;6.992;2022-10-16T04:16:58;3.80;;;2.00;;
61200;SDS011;47065;52.898;6.992;2022-10-16T04:19:23;5.22;;;2.35;;
61200;SDS011;47065;52.898;6.992;2022-10-16T04:21:49;3.80;;;1.98;;
61200;SDS011;47065;52.898;6.992;2022-10-16T04:24:15;6.85;;;1.90;;
61200;SDS011;47065;52.898;6.992;2022-10-16T04:26:40;6.65;;;2.17;;
61200;SDS011;47065;52.898;6.992;2022-10-16T04:29:06;4.60;;;2.40;;
61200;SDS011;47065;52.898;6.992;2022-10-16T04:31:32;2.58;;;1.80;;
61200;SDS011;47065;52.898;6.992;2022-10-16T04:33:58;4.72;;;2.20;;
61200;SDS011;47065;52.898;6.992;2022-10-16T04:36:23;4.07;;;2.08;;
61200;SDS011;47065;52.898;6.992;2022-10-16T04:38:49;5.65;;;2.47;;
61200;SDS011;47065;52.898;6.992;2022-10-16T04:41:15;6.05;;;2.63;;
61200;SDS011;47065;52.898;6.992;2022-10-16T04:43:41;5.32;;;2.65;;
61200;SDS011;47065;52.898;6.992;2022-10-16T04:46:06;2.80;;;2.50;;
61200;SDS011;47065;52.898;6.992;2022-10-16T04:48:32;5.55;;;2.63;;
61200;SDS011;47065;52.898;6.992;2022-10-16T04:50:58;6.40;;;2.53;;
61200;SDS011;47065;52.898;6.992;2022-10-16T04:53:24;7.05;;;3.08;;
61200;SDS011;47065;52.898;6.992;2022-10-16T04:55:50;8.93;;;3.20;;
61200;SDS011;47065;52.898;6.992;2022-10-16T04:58:16;6.38;;;3.40;;
61200;SDS011;47065;52.898;6.992;2022-10-16T05:00:41;7.53;;;3.42;;
61200;SDS011;47065;52.898;6.992;2022-10-16T05:03:07;5.72;;;3.00;;
61200;SDS011;47065;52.898;6.992;2022-10-16T05:05:33;5.75;;;3.13;;
61200;SDS011;47065;52.898;6.992;2022-10-16T05:08:00;4.55;;;3.13;;
61200;SDS011;47065;52.898;6.992;2022-10-16T05:10:26;6.72;;;2.90;;
61200;SDS011;47065;52.898;6.992;2022-10-16T05:12:51;4.57;;;3.70;;
61200;SDS011;47065;52.898;6.992;2022-10-16T05:15:17;6.95;;;2.60;;
61200;SDS011;47065;52.898;6.992;2022-10-16T05:17:43;4.93;;;3.10;;
61200;SDS011;47065;52.898;6.992;2022-10-16T05:20:09;6.63;;;2.90;;
61200;SDS011;47065;52.898;6.992;2022-10-16T05:22:35;4.20;;;3.28;;
61200;SDS011;47065;52.898;6.992;2022-10-16T05:25:00;5.22;;;3.17;;
61200;SDS011;47065;52.898;6.992;2022-10-16T05:27:26;3.80;;;2.88;;
61200;SDS011;47065;52.898;6.992;2022-10-16T05:29:52;4.57;;;2.85;;
61200;SDS011;47065;52.898;6.992;2022-10-16T05:32:18;5.32;;;3.42;;
61200;SDS011;47065;52.898;6.992;2022-10-16T05:34:44;5.93;;;3.83;;
61200;SDS011;47065;52.898;6.992;2022-10-16T05:37:10;4.97;;;3.22;;
61200;SDS011;47065;52.898;6.992;2022-10-16T05:39:36;6.05;;;3.63;;
61200;SDS011;47065;52.898;6.992;2022-10-16T05:42:03;4.90;;;3.38;;
61200;SDS011;47065;52.898;6.992;2022-10-16T05:44:29;5.60;;;4.10;;
61200;SDS011;47065;52.898;6.992;2022-10-16T05:46:55;7.63;;;3.35;;
61200;SDS011;47065;52.898;6.992;2022-10-16T05:49:21;4.55;;;3.30;;
61200;SDS011;47065;52.898;6.992;2022-10-16T05:51:46;4.60;;;2.78;;
61200;SDS011;47065;52.898;6.992;2022-10-16T05:54:12;4.10;;;3.15;;
61200;SDS011;47065;52.898;6.992;2022-10-16T05:56:38;3.10;;;2.72;;
61200;SDS011;47065;52.898;6.992;2022-10-16T05:59:04;4.63;;;3.20;;
61200;SDS011;47065;52.898;6.992;2022-10-16T06:01:30;7.13;;;3.42;;
61200;SDS011;47065;52.898;6.992;2022-10-16T06:03:56;3.95;;;3.15;;
61200;SDS011;47065;52.898;6.992;2022-10-16T06:06:23;4.45;;;2.88;;
61200;SDS011;47065;52.898;6.992;2022-10-16T06:08:51;5.93;;;3.95;;
61200;SDS011;47065;52.898;6.992;2022-10-16T06:11:21;5.15;;;3.10;;
61200;SDS011;47065;52.898;6.992;2022-10-16T06:13:49;5.38;;;2.78;;
61200;SDS011;47065;52.898;6.992;2022-10-16T06:16:15;7.32;;;3.15;;
61200;SDS011;47065;52.898;6.992;2022-10-16T06:18:41;7.88;;;3.17;;
61200;SDS011;47065;52.898;6.992;2022-10-16T06:21:11;4.15;;;2.88;;
61200;SDS011;47065;52.898;6.992;2022-10-16T06:23:40;6.35;;;2.72;;
61200;SDS011;47065;52.898;6.992;2022-10-16T06:26:10;4.63;;;2.50;;
61200;SDS011;47065;52.898;6.992;2022-10-16T06:28:38;4.15;;;2.83;;
61200;SDS011;47065;52.898;6.992;2022-10-16T06:31:04;5.00;;;2.78;;
61200;SDS011;47065;52.898;6.992;2022-10-16T06:33:32;5.05;;;2.47;;
61200;SDS011;47065;52.898;6.992;2022-10-16T06:36:05;6.80;;;3.25;;
61200;SDS011;47065;52.898;6.992;2022-10-16T06:38:33;7.53;;;3.38;;
61200;SDS011;47065;52.898;6.992;2022-10-16T06:40:59;6.60;;;2.50;;
61200;SDS011;47065;52.898;6.992;2022-10-16T06:43:25;7.32;;;2.10;;
61200;SDS011;47065;52.898;6.992;2022-10-16T06:45:55;3.30;;;1.98;;
61200;SDS011;47065;52.898;6.992;2022-10-16T06:48:22;4.45;;;2.53;;
61200;SDS011;47065;52.898;6.992;2022-10-16T06:50:58;3.33;;;2.08;;
61200;SDS011;47065;52.898;6.992;2022-10-16T06:53:27;4.47;;;1.75;;
61200;SDS011;47065;52.898;6.992;2022-10-16T06:55:54;4.55;;;2.83;;
61200;SDS011;47065;52.898;6.992;2022-10-16T06:58:20;4.47;;;2.03;;
61200;SDS011;47065;52.898;6.992;2022-10-16T07:00:46;9.82;;;2.22;;
61200;SDS011;47065;52.898;6.992;2022-10-16T07:03:12;6.25;;;2.13;;
61200;SDS011;47065;52.898;6.992;2022-10-16T07:05:38;5.93;;;2.05;;
61200;SDS011;47065;52.898;6.992;2022-10-16T07:08:07;2.63;;;2.28;;
61200;SDS011;47065;52.898;6.992;2022-10-16T07:10:34;3.15;;;2.08;;
61200;SDS011;47065;52.898;6.992;2022-10-16T07:13:00;2.90;;;1.83;;
61200;SDS011;47065;52.898;6.992;2022-10-16T07:15:26;5.40;;;1.70;;
61200;SDS011;47065;52.898;6.992;2022-10-16T07:17:52;9.95;;;2.10;;
61200;SDS011;47065;52.898;6.992;2022-10-16T07:20:18;5.70;;;2.05;;
61200;SDS011;47065;52.898;6.992;2022-10-16T07:22:44;10.82;;;2.38;;
61200;SDS011;47065;52.898;6.992;2022-10-16T07:25:09;7.65;;;1.70;;
61200;SDS011;47065;52.898;6.992;2022-10-16T07:27:36;5.47;;;1.92;;
61200;SDS011;47065;52.898;6.992;2022-10-16T07:30:02;3.00;;;2.33;;
61200;SDS011;47065;52.898;6.992;2022-10-16T07:32:29;5.82;;;2.42;;
61200;SDS011;47065;52.898;6.992;2022-10-16T07:34:55;5.32;;;1.98;;
61200;SDS011;47065;52.898;6.992;2022-10-16T07:37:21;5.05;;;1.83;;
61200;SDS011;47065;52.898;6.992;2022-10-16T07:39:47;6.60;;;1.65;;
61200;SDS011;47065;52.898;6.992;2022-10-16T07:42:15;6.60;;;2.67;;
61200;SDS011;47065;52.898;6.992;2022-10-16T07:44:41;3.40;;;1.65;;
61200;SDS011;47065;52.898;6.992;2022-10-16T07:47:06;2.63;;;1.75;;
61200;SDS011;47065;52.898;6.992;2022-10-16T07:49:32;5.82;;;1.75;;
61200;SDS011;47065;52.898;6.992;2022-10-16T07:51:58;5.43;;;2.00;;
61200;SDS011;47065;52.898;6.992;2022-10-16T07:54:23;3.03;;;1.77;;
61200;SDS011;47065;52.898;6.992;2022-10-16T07:56:49;2.70;;;1.70;;
61200;SDS011;47065;52.898;6.992;2022-10-16T07:59:14;6.10;;;2.15;;
61200;SDS011;47065;52.898;6.992;2022-10-16T08:01:40;3.88;;;2.45;;
61200;SDS011;47065;52.898;6.992;2022-10-16T08:04:07;4.55;;;2.22;;
61200;SDS011;47065;52.898;6.992;2022-10-16T08:06:37;6.00;;;2.20;;
61200;SDS011;47065;52.898;6.992;2022-10-16T08:09:05;4.65;;;2.05;;
61200;SDS011;47065;52.898;6.992;2022-10-16T08:11:31;6.60;;;2.10;;
61200;SDS011;47065;52.898;6.992;2022-10-16T08:13:57;3.60;;;1.70;;
61200;SDS011;47065;52.898;6.992;2022-10-16T08:16:22;7.20;;;2.03;;
61200;SDS011;47065;52.898;6.992;2022-10-16T08:18:49;8.45;;;2.75;;
61200;SDS011;47065;52.898;6.992;2022-10-16T08:21:17;5.78;;;2.20;;
61200;SDS011;47065;52.898;6.992;2022-10-16T08:23:43;4.68;;;1.52;;
61200;SDS011;47065;52.898;6.992;2022-10-16T08:26:09;4.85;;;1.65;;
61200;SDS011;47065;52.898;6.992;2022-10-16T08:28:35;7.40;;;1.70;;
61200;SDS011;47065;52.898;6.992;2022-10-16T08:31:09;5.32;;;1.83;;
61200;SDS011;47065;52.898;6.992;2022-10-16T08:33:40;5.95;;;2.95;;
61200;SDS011;47065;52.898;6.992;2022-10-16T08:36:08;3.60;;;1.45;;
61200;SDS011;47065;52.898;6.992;2022-10-16T08:38:35;2.28;;;0.98;;
61200;SDS011;47065;52.898;6.992;2022-10-16T08:41:25;3.53;;;1.20;;
61200;SDS011;47065;52.898;6.992;2022-10-16T08:50:19;1.48;;;0.90;;
61200;SDS011;47065;52.898;6.992;2022-10-16T08:52:40;4.53;;;0.90;;
61200;SDS011;47065;52.898;6.992;2022-10-16T08:55:14;2.47;;;1.20;;
61200;SDS011;47065;52.898;6.992;2022-10-16T08:58:01;2.47;;;1.10;;
61200;SDS011;47065;52.898;6.992;2022-10-16T09:00:27;3.00;;;1.17;;
61200;SDS011;47065;52.898;6.992;2022-10-16T09:05:43;2.33;;;0.60;;
61200;SDS011;47065;52.898;6.992;2022-10-16T09:11:36;3.80;;;1.00;;
61200;SDS011;47065;52.898;6.992;2022-10-16T09:14:18;6.28;;;1.50;;
61200;SDS011;47065;52.898;6.992;2022-10-16T09:17:12;4.55;;;1.00;;
61200;SDS011;47065;52.898;6.992;2022-10-16T09:19:51;5.65;;;1.30;;
61200;SDS011;47065;52.898;6.992;2022-10-16T09:22:24;1.67;;;1.02;;
61200;SDS011;47065;52.898;6.992;2022-10-16T09:24:53;2.72;;;1.30;;
61200;SDS011;47065;52.898;6.992;2022-10-16T09:27:24;4.07;;;1.00;;
61200;SDS011;47065;52.898;6.992;2022-10-16T09:29:51;5.75;;;1.23;;
61200;SDS011;47065;52.898;6.992;2022-10-16T09:32:20;2.17;;;1.00;;
61200;SDS011;47065;52.898;6.992;2022-10-16T09:34:52;2.60;;;1.15;;
61200;SDS011;47065;52.898;6.992;2022-10-16T09:37:21;6.80;;;1.70;;
61200;SDS011;47065;52.898;6.992;2022-10-16T09:39:52;7.38;;;1.27;;
61200;SDS011;47065;52.898;6.992;2022-10-16T09:42:26;3.92;;;1.05;;
61200;SDS011;47065;52.898;6.992;2022-10-16T09:44:56;6.18;;;1.15;;
61200;SDS011;47065;52.898;6.992;2022-10-16T09:47:28;7.05;;;1.70;;
61200;SDS011;47065;52.898;6.992;2022-10-16T09:50:00;5.47;;;1.42;;
61200;SDS011;47065;52.898;6.992;2022-10-16T09:52:29;7.63;;;1.25;;
61200;SDS011;47065;52.898;6.992;2022-10-16T09:54:59;5.78;;;1.13;;
61200;SDS011;47065;52.898;6.992;2022-10-16T09:57:27;7.43;;;1.30;;
61200;SDS011;47065;52.898;6.992;2022-10-16T09:59:55;7.18;;;1.70;;
61200;SDS011;47065;52.898;6.992;2022-10-16T10:02:35;2.72;;;1.00;;
61200;SDS011;47065;52.898;6.992;2022-10-16T10:05:04;4.90;;;1.40;;
61200;SDS011;47065;52.898;6.992;2022-10-16T10:07:42;6.63;;;1.92;;
61200;SDS011;47065;52.898;6.992;2022-10-16T10:10:18;6.13;;;1.45;;
61200;SDS011;47065;52.898;6.992;2022-10-16T10:12:46;4.25;;;1.30;;
61200;SDS011;47065;52.898;6.992;2022-10-16T10:15:13;8.82;;;1.58;;
61200;SDS011;47065;52.898;6.992;2022-10-16T10:17:51;10.30;;;2.40;;
61200;SDS011;47065;52.898;6.992;2022-10-16T10:20:28;5.55;;;1.35;;
61200;SDS011;47065;52.898;6.992;2022-10-16T10:22:59;4.13;;;1.58;;
61200;SDS011;47065;52.898;6.992;2022-10-16T10:25:53;11.18;;;2.53;;
61200;SDS011;47065;52.898;6.992;2022-10-16T10:29:01;7.82;;;1.40;;
61200;SDS011;47065;52.898;6.992;2022-10-16T10:34:24;10.25;;;2.60;;
61200;SDS011;47065;52.898;6.992;2022-10-16T10:36:54;7.53;;;1.48;;
61200;SDS011;47065;52.898;6.992;2022-10-16T10:39:33;8.52;;;1.48;;
61200;SDS011;47065;52.898;6.992;2022-10-16T10:42:15;6.47;;;1.33;;
61200;SDS011;47065;52.898;6.992;2022-10-16T10:47:43;4.97;;;1.17;;
61200;SDS011;47065;52.898;6.992;2022-10-16T10:53:56;8.30;;;1.55;;
61200;SDS011;47065;52.898;6.992;2022-10-16T10:56:25;6.32;;;1.60;;
61200;SDS011;47065;52.898;6.992;2022-10-16T11:04:29;10.02;;;1.60;;
61200;SDS011;47065;52.898;6.992;2022-10-16T11:10:11;12.30;;;2.60;;
61200;SDS011;47065;52.898;6.992;2022-10-16T11:15:19;7.30;;;1.70;;
61200;SDS011;47065;52.898;6.992;2022-10-16T11:20:42;10.15;;;1.73;;
61200;SDS011;47065;52.898;6.992;2022-10-16T11:26:04;9.77;;;1.73;;
61200;SDS011;47065;52.898;6.992;2022-10-16T11:28:48;7.90;;;1.33;;
61200;SDS011;47065;52.898;6.992;2022-10-16T11:34:06;11.00;;;2.42;;
61200;SDS011;47065;52.898;6.992;2022-10-16T11:36:56;10.45;;;2.83;;
61200;SDS011;47065;52.898;6.992;2022-10-16T11:39:30;12.57;;;2.50;;
61200;SDS011;47065;52.898;6.992;2022-10-16T11:49:58;5.45;;;1.58;;
61200;SDS011;47065;52.898;6.992;2022-10-16T11:55:34;3.80;;;1.23;;
61200;SDS011;47065;52.898;6.992;2022-10-16T11:58:09;4.75;;;1.13;;
61200;SDS011;47065;52.898;6.992;2022-10-16T12:01:17;7.82;;;2.00;;
61200;SDS011;47065;52.898;6.992;2022-10-16T12:09:05;6.47;;;1.23;;
61200;SDS011;47065;52.898;6.992;2022-10-16T12:11:36;5.13;;;1.42;;
61200;SDS011;47065;52.898;6.992;2022-10-16T12:16:53;6.95;;;1.42;;
61200;SDS011;47065;52.898;6.992;2022-10-16T12:19:19;5.30;;;1.10;;
61200;SDS011;47065;52.898;6.992;2022-10-16T12:21:46;5.55;;;1.50;;
61200;SDS011;47065;52.898;6.992;2022-10-16T12:24:27;10.88;;;1.73;;
61200;SDS011;47065;52.898;6.992;2022-10-16T12:27:03;6.82;;;2.50;;
61200;SDS011;47065;52.898;6.992;2022-10-16T12:29:37;6.60;;;1.67;;
61200;SDS011;47065;52.898;6.992;2022-10-16T12:32:05;3.80;;;1.42;;
61200;SDS011;47065;52.898;6.992;2022-10-16T12:35:16;6.55;;;1.67;;
61200;SDS011;47065;52.898;6.992;2022-10-16T12:37:45;5.40;;;1.40;;
61200;SDS011;47065;52.898;6.992;2022-10-16T12:40:12;5.07;;;1.42;;
61200;SDS011;47065;52.898;6.992;2022-10-16T12:42:41;7.35;;;1.50;;
61200;SDS011;47065;52.898;6.992;2022-10-16T12:45:27;7.07;;;1.20;;
61200;SDS011;47065;52.898;6.992;2022-10-16T12:47:56;9.65;;;1.48;;
61200;SDS011;47065;52.898;6.992;2022-10-16T12:50:26;6.32;;;1.80;;
61200;SDS011;47065;52.898;6.992;2022-10-16T12:52:56;8.10;;;1.77;;
61200;SDS011;47065;52.898;6.992;2022-10-16T12:55:22;6.82;;;1.55;;
61200;SDS011;47065;52.898;6.992;2022-10-16T13:00:54;6.07;;;1.20;;
61200;SDS011;47065;52.898;6.992;2022-10-16T13:06:30;6.93;;;1.70;;
61200;SDS011;47065;52.898;6.992;2022-10-16T13:17:24;4.70;;;1.52;;
61200;SDS011;47065;52.898;6.992;2022-10-16T13:26:01;7.05;;;1.63;;
61200;SDS011;47065;52.898;6.992;2022-10-16T13:28:37;3.15;;;1.55;;
61200;SDS011;47065;52.898;6.992;2022-10-16T13:31:04;3.60;;;1.10;;
61200;SDS011;47065;52.898;6.992;2022-10-16T13:33:40;9.68;;;1.52;;
61200;SDS011;47065;52.898;6.992;2022-10-16T13:36:23;8.80;;;1.73;;
61200;SDS011;47065;52.898;6.992;2022-10-16T13:39:15;9.48;;;1.73;;
61200;SDS011;47065;52.898;6.992;2022-10-16T13:41:46;9.35;;;2.03;;
61200;SDS011;47065;52.898;6.992;2022-10-16T13:44:26;6.65;;;1.75;;
61200;SDS011;47065;52.898;6.992;2022-10-16T13:46:59;7.28;;;1.50;;
61200;SDS011;47065;52.898;6.992;2022-10-16T13:49:25;13.15;;;1.95;;
61200;SDS011;47065;52.898;6.992;2022-10-16T13:51:55;7.55;;;1.55;;
61200;SDS011;47065;52.898;6.992;2022-10-16T13:54:23;9.80;;;1.40;;
61200;SDS011;47065;52.898;6.992;2022-10-16T13:56:50;7.30;;;1.48;;
61200;SDS011;47065;52.898;6.992;2022-10-16T13:59:22;8.10;;;1.55;;
61200;SDS011;47065;52.898;6.992;2022-10-16T14:01:51;8.60;;;1.98;;
61200;SDS011;47065;52.898;6.992;2022-10-16T14:04:19;6.97;;;1.45;;
61200;SDS011;47065;52.898;6.992;2022-10-16T14:06:46;3.53;;;1.52;;
61200;SDS011;47065;52.898;6.992;2022-10-16T14:09:20;11.38;;;1.42;;
61200;SDS011;47065;52.898;6.992;2022-10-16T14:12:02;7.70;;;1.60;;
61200;SDS011;47065;52.898;6.992;2022-10-16T14:14:43;10.20;;;2.60;;
61200;SDS011;47065;52.898;6.992;2022-10-16T14:17:22;6.13;;;1.38;;
61200;SDS011;47065;52.898;6.992;2022-10-16T14:19:54;6.93;;;1.60;;
61200;SDS011;47065;52.898;6.992;2022-10-16T14:22:30;8.85;;;1.70;;
61200;SDS011;47065;52.898;6.992;2022-10-16T14:25:20;8.95;;;1.65;;
61200;SDS011;47065;52.898;6.992;2022-10-16T14:27:57;13.10;;;2.05;;
61200;SDS011;47065;52.898;6.992;2022-10-16T14:30:28;7.22;;;1.08;;
61200;SDS011;47065;52.898;6.992;2022-10-16T14:32:59;4.30;;;1.10;;
61200;SDS011;47065;52.898;6.992;2022-10-16T14:35:33;8.93;;;1.38;;
61200;SDS011;47065;52.898;6.992;2022-10-16T14:38:02;7.63;;;1.73;;
61200;SDS011;47065;52.898;6.992;2022-10-16T14:40:30;8.18;;;2.65;;
61200;SDS011;47065;52.898;6.992;2022-10-16T14:42:57;4.90;;;1.20;;
61200;SDS011;47065;52.898;6.992;2022-10-16T14:45:26;5.15;;;1.20;;
61200;SDS011;47065;52.898;6.992;2022-10-16T14:47:54;10.68;;;1.60;;
61200;SDS011;47065;52.898;6.992;2022-10-16T14:50:23;4.05;;;1.02;;
61200;SDS011;47065;52.898;6.992;2022-10-16T14:52:49;5.40;;;1.30;;
61200;SDS011;47065;52.898;6.992;2022-10-16T14:55:14;8.32;;;1.90;;
61200;SDS011;47065;52.898;6.992;2022-10-16T14:57:40;10.60;;;1.80;;
61200;SDS011;47065;52.898;6.992;2022-10-16T15:00:09;8.88;;;2.50;;
61200;SDS011;47065;52.898;6.992;2022-10-16T15:02:38;5.95;;;1.90;;
61200;SDS011;47065;52.898;6.992;2022-10-16T15:05:12;6.75;;;1.27;;
61200;SDS011;47065;52.898;6.992;2022-10-16T15:07:38;9.30;;;1.73;;
61200;SDS011;47065;52.898;6.992;2022-10-16T15:10:03;4.57;;;1.17;;
61200;SDS011;47065;52.898;6.992;2022-10-16T15:12:30;7.05;;;1.63;;
61200;SDS011;47065;52.898;6.992;2022-10-16T15:14:55;11.63;;;1.58;;
61200;SDS011;47065;52.898;6.992;2022-10-16T15:17:21;6.68;;;1.17;;
61200;SDS011;47065;52.898;6.992;2022-10-16T15:19:46;7.07;;;2.17;;
61200;SDS011;47065;52.898;6.992;2022-10-16T15:22:12;9.02;;;1.63;;
61200;SDS011;47065;52.898;6.992;2022-10-16T15:24:37;5.35;;;1.33;;
61200;SDS011;47065;52.898;6.992;2022-10-16T15:27:03;6.65;;;1.20;;
61200;SDS011;47065;52.898;6.992;2022-10-16T15:29:29;9.40;;;1.52;;
61200;SDS011;47065;52.898;6.992;2022-10-16T15:31:54;8.98;;;1.70;;
61200;SDS011;47065;52.898;6.992;2022-10-16T15:34:20;7.53;;;1.40;;
61200;SDS011;47065;52.898;6.992;2022-10-16T15:36:46;9.70;;;2.10;;
61200;SDS011;47065;52.898;6.992;2022-10-16T15:39:13;7.70;;;1.52;;
61200;SDS011;47065;52.898;6.992;2022-10-16T15:41:44;3.92;;;1.55;;
61200;SDS011;47065;52.898;6.992;2022-10-16T15:44:15;7.72;;;1.38;;
61200;SDS011;47065;52.898;6.992;2022-10-16T15:46:41;6.40;;;1.42;;
61200;SDS011;47065;52.898;6.992;2022-10-16T15:49:07;5.13;;;1.55;;
61200;SDS011;47065;52.898;6.992;2022-10-16T15:51:35;6.97;;;1.70;;
61200;SDS011;47065;52.898;6.992;2022-10-16T15:54:03;6.05;;;2.00;;
61200;SDS011;47065;52.898;6.992;2022-10-16T15:56:29;8.77;;;2.15;;
61200;SDS011;47065;52.898;6.992;2022-10-16T15:58:58;5.68;;;1.50;;
61200;SDS011;47065;52.898;6.992;2022-10-16T16:01:26;12.20;;;1.77;;
61200;SDS011;47065;52.898;6.992;2022-10-16T16:03:54;4.60;;;1.77;;
61200;SDS011;47065;52.898;6.992;2022-10-16T16:06:21;6.03;;;1.30;;
61200;SDS011;47065;52.898;6.992;2022-10-16T16:08:49;6.45;;;2.25;;
61200;SDS011;47065;52.898;6.992;2022-10-16T16:11:16;8.63;;;1.98;;
61200;SDS011;47065;52.898;6.992;2022-10-16T16:13:42;7.90;;;1.83;;
61200;SDS011;47065;52.898;6.992;2022-10-16T16:16:08;10.38;;;1.98;;
61200;SDS011;47065;52.898;6.992;2022-10-16T16:18:36;9.52;;;3.15;;
61200;SDS011;47065;52.898;6.992;2022-10-16T16:21:03;7.22;;;1.85;;
61200;SDS011;47065;52.898;6.992;2022-10-16T16:23:29;11.25;;;2.00;;
61200;SDS011;47065;52.898;6.992;2022-10-16T16:28:31;6.72;;;2.03;;
61200;SDS011;47065;52.898;6.992;2022-10-16T16:30:57;7.95;;;2.08;;
61200;SDS011;47065;52.898;6.992;2022-10-16T16:33:25;8.15;;;1.95;;
61200;SDS011;47065;52.898;6.992;2022-10-16T16:35:55;10.35;;;1.70;;
61200;SDS011;47065;52.898;6.992;2022-10-16T16:38:21;7.53;;;1.92;;
61200;SDS011;47065;52.898;6.992;2022-10-16T16:40:47;9.45;;;2.60;;